Domov               UVHVVR             MKGP            O straneh              
ZDRAVSTVENO VARSTVO RASTLIN
  MREŽA AGROMET. POSTAJ
 ► PROGNOSTIČNA OBVESTILA
AGROMETEOROLOŠKI PODATKI -
ARSO
OBVLADOVANJE TVEGANJ ZARADI
NEUGODNIH VREMENSKIH RAZMER
  ► NARAVNE NESREČE
  ► SUŠA/MOČA
  ► NAMAKANJE
  ► ŽLED (gozdarstvo)
KARTOGRAFSKI PRIKAZI
SPLETNE POVEZAVE
PROJEKTI IN PUBLIKACIJE

AGROMETEOROLOŠKA MREŽA: VREMENSKE POSTAJE IN FENOLOŠKA OPAZOVANJA

Pregled podatkov za lokacijo Otočec, meteorološka postaja 37169

Pregled senzorjev na lokaciji

ID Ime Zadnja
vrednost
Datum
zadnje
spremembe
Tip
senzorja
3926 Omočenost lista (U) 0 U 23.3.2019 11:44 A730WET
3927 Padavine (mm) 0 mm 23.3.2019 11:45 Rain-O-Matic
3924 Relativna vlaga 2 m (% RH) 41,17 % RH 23.3.2019 11:44 50YA
3925 Temperatura 2 m (°C) 14,87 °C 23.3.2019 11:45 50YA

Pregled podatkov zadnjih 24 ur

Zap.
št.
Datum in čas Otočec
Omočenost
lista
Padavine Relativna
vlaga
2
m
Temperatura
2
m
1 23.3.2019 11:30
2 23.3.2019 11:00 0 0 41,2 14,9
3 23.3.2019 10:30 0 0 44,8 14
4 23.3.2019 10:00 0 0 50,6 12,1
5 23.3.2019 09:30 0 0 58,6 10,6
6 23.3.2019 09:00 0 0 63 8,9
7 23.3.2019 08:30 0 0 71,8 6,4
8 23.3.2019 08:00 0 0 77,7 4,4
9 23.3.2019 07:30 0 0 84,4 2,5
10 23.3.2019 07:00 0 0 87,8 1,5
11 23.3.2019 06:30 0 0 89 1,2
12 23.3.2019 06:00 0 0 88,7 1,4
13 23.3.2019 05:30 0 0 87,7 1,6
14 23.3.2019 05:00 0 0 87,3 1,6
15 23.3.2019 04:30 0 0 87,3 1,8
16 23.3.2019 04:00 0 0 85,2 2,2
17 23.3.2019 03:30 0 0 83,9 2,4
18 23.3.2019 03:00 0 0 82,3 3
19 23.3.2019 02:30 0 0 82,1 3,1
20 23.3.2019 02:00 0 0 80,4 3,2
21 23.3.2019 01:30 0 0 77,6 3,8
22 23.3.2019 01:00 0 0 77 4,1
23 23.3.2019 00:30 0 0 76,3 4,2
24 23.3.2019 00:00 0 0 71,8 5
25 22.3.2019 23:30 0 0 67,8 5,7
26 22.3.2019 23:00 0 0 67,7 6
27 22.3.2019 22:30 0 0 66,7 5,9
28 22.3.2019 22:00 0 0 65,3 6,1
29 22.3.2019 21:30 0 0 62,8 6,6
30 22.3.2019 21:00 0 0 59,1 7,6
31 22.3.2019 20:30 0 0 56,1 8,4
32 22.3.2019 20:00 0 0 47,4 9,8
33 22.3.2019 19:30 0 0 46,2 10,5
34 22.3.2019 19:00 0 0 42,8 11,5
35 22.3.2019 18:30 0 0 39,4 12,8
36 22.3.2019 18:00 0 0 36,8 13,7
37 22.3.2019 17:30 0 0 31,4 15,2
38 22.3.2019 17:00 0 0 27 16,2
39 22.3.2019 16:30 0 0 26,8 17
40 22.3.2019 16:00 0 0 26,2 17,3
41 22.3.2019 15:30 0 0 29,5 17,4
42 22.3.2019 15:00 0 0 33,2 16,9
43 22.3.2019 14:30 0 0 36,1 16,5
44 22.3.2019 14:00 0 0 35,6 16,6
45 22.3.2019 13:30 0 0 35,4 16
46 22.3.2019 13:00 0 0 37 15,8
47 22.3.2019 12:30 0 0 37,7 15,2
48 22.3.2019 12:00 0 0 37,3 14,6
© 2011 Ministrstvo za kmetijstvo, gozdarstvo in prehrano. Vse pravice pridržane.